Concepcion, Texas
Current Conditions -  °F | °C
As of 6:15 AM on Monday 24 Nov 2014 (Local Time) from KBKS Reporting Station
Clear Clear  
Wind Chill: 57°   Ceiling: Unl
Heat Index: 57°   Visibility: 10mi
Dew Point: 43°   Wind: 12mph
Humidity: 59%   Direction: 360°N
Pressure: 29.94"   Gusts: NA
Location:  27.39°N, 98.36°W
Report Text: KBKS 241215Z AUTO 36010KT 10SM CLR 14/06 A2994 RMK AO1 T01410062
Loading
Personal Weather Stations






























Interactive Weather Map New forecast layout! Learn more

10-Day Weather Forecast

Advertisements
Track Severe Weather on mobile